Aeroporto :
LOGIN :

Iscrizione | Disclaimer

   EN    FR    IT 

 










Sommario :    VFR   VFR Marginale   IFR   IFR Intensivo   IFR Molto Intensivo
Visibilità : 
Base nubi : 
>= 8 km
>= 3000ft
5 / 8 km
1000 / 3000 ft
1500m / 5 km
500 / 1000 ft
800 / 1500m
200 / 500 ft
< 800m
< 200 ft
Simboli :   Temporali  Nebbia  Neve Forte  Precipitazioni Forti  Vento > 20 kt
SIGMETs :   Varie  Temporali  Ghiacco  Turbolenza  Onda orograficha  Ceneri Vulcaniche






- Altitudine del aeroporto : 297 ft
- Codice IATA : BBU


LRBS - Bucarest - Baneasa Aurel Vlaicu

ULTIMO METAR :
  • 251630Z VRB01KT CAVOK 05/M03 Q1021 NOSIG

METARs OBSOLETI :
  • 251600Z 00000KT CAVOK 06/M03 Q1021 NOSIG
  • 251530Z 00000KT CAVOK 06/M03 Q1021 NOSIG
  • 251500Z 00000KT CAVOK 08/M03 Q1021 NOSIG
  • 251430Z 00000KT CAVOK 10/M03 Q1021 NOSIG
  • 251400Z 21002KT CAVOK 10/M03 Q1021 NOSIG
  • 251330Z 21004KT CAVOK 10/M03 Q1021 NOSIG

TAF TAF LRBS
Valido dal 25 a 12 ore il 26 a 12 ore UTC


251100Z 2512/2612 VRB04KT CAVOK
TEMPO 2602/2607 3000 BR



MetMap, La meteo Aeronautica in un colpo d'occhio ! - Copyright ORBIFLY Dicembre 2007 - Disclaimer

ORBIFLY MET'MAP TEAM :

Programmazione e sviluppo : Alexandra Zaïnal
Concezione : Baudouin d'Aumeries
Aiuto per la programmazione : Marc-Olivier Méhu
Supporto tecnico e logistico : Manuel Goepfert
Aiuto per la traduzione : Arnaldo La Scala

Contatto : metmap@orbifly.com




FONTI E CREDITI :

   NOAA